Time;durP1;ratioP1;P1;durP2;ratioP2;P2;SDS_P1;SDS_P2;PMS_P1;PMS_P2;Temp;Humidity;BMP_temperature;BMP_pressure;BME280_temperature;BME280_humidity;BME280_pressure;Samples;Min_cycle;Max_cycle;Signal;HPM_P1;HPM_P2
2023/07/19 00:01:28;;;;;;;5.63;2.92;;;;;;;18.65;59.04;98634.22;5034863;28;20033;-80
2023/07/19 00:03:53;;;;;;;3.85;3.05;;;;;;;18.69;59.18;98650.66;5033770;28;20030;-80
2023/07/19 00:06:19;;;;;;;9.77;3.75;;;;;;;18.75;59.23;98651.31;5024890;28;20088;-80
2023/07/19 00:08:44;;;;;;;6.03;3.15;;;;;;;18.59;59.18;98642.75;5030451;28;20770;-80
2023/07/19 00:11:09;;;;;;;4.10;2.97;;;;;;;18.64;59.23;98645.34;5029374;28;20548;-80
2023/07/19 00:13:35;;;;;;;5.50;3.05;;;;;;;18.56;59.08;98636.09;5030752;28;20095;-80
2023/07/19 00:16:00;;;;;;;4.55;3.72;;;;;;;18.62;59.26;98642.16;5016123;28;20026;-80
2023/07/19 00:18:26;;;;;;;6.38;3.40;;;;;;;18.45;59.49;98642.81;5013301;28;20043;-80
2023/07/19 00:20:51;;;;;;;4.32;3.30;;;;;;;18.40;59.82;98647.50;5033090;28;20029;-80
2023/07/19 00:23:16;;;;;;;5.80;3.13;;;;;;;18.39;59.72;98640.50;5016978;28;20111;-80
2023/07/19 00:25:42;;;;;;;5.85;3.10;;;;;;;18.37;59.88;98645.41;5033670;28;20503;-80
2023/07/19 00:28:07;;;;;;;3.78;3.30;;;;;;;18.29;59.53;98643.41;5032117;28;20034;-80
2023/07/19 00:30:32;;;;;;;4.55;2.95;;;;;;;18.30;59.32;98634.22;5037283;28;20120;-80
2023/07/19 00:32:58;;;;;;;4.72;3.55;;;;;;;18.25;59.60;98628.91;5000797;28;20385;-80
2023/07/19 00:35:23;;;;;;;6.78;3.35;;;;;;;18.27;59.94;98635.63;5036120;28;20029;-80
2023/07/19 00:37:48;;;;;;;3.83;3.00;;;;;;;18.32;59.57;98634.72;5035245;28;20469;-80
2023/07/19 00:40:14;;;;;;;4.47;2.97;;;;;;;18.17;59.98;98619.63;5021079;28;20041;-80
2023/07/19 00:42:39;;;;;;;5.50;3.25;;;;;;;18.18;59.44;98625.81;5031130;28;20029;-80
2023/07/19 00:45:05;;;;;;;7.53;3.47;;;;;;;18.31;59.78;98642.00;5014719;28;20029;-79
2023/07/19 00:47:33;;;;;;;4.57;3.40;;;;;;;18.20;59.96;98618.19;5029445;28;20025;-80
2023/07/19 00:49:58;;;;;;;4.80;3.45;;;;;;;18.22;59.80;98618.69;5012493;28;20071;-80
2023/07/19 00:52:24;;;;;;;6.50;3.33;;;;;;;18.16;60.35;98619.91;5030086;28;20029;-80
2023/07/19 00:54:49;;;;;;;6.72;3.20;;;;;;;18.15;60.41;98629.91;5036458;28;20424;-80
2023/07/19 00:57:15;;;;;;;5.47;3.45;;;;;;;18.00;60.84;98622.13;5021571;28;20044;-80
2023/07/19 00:59:41;;;;;;;5.95;3.58;;;;;;;17.98;60.26;98627.03;5021912;28;20318;-80
2023/07/19 01:02:07;;;;;;;5.88;3.42;;;;;;;17.93;60.57;98609.03;5025890;28;20389;-80
2023/07/19 01:04:33;;;;;;;6.53;3.72;;;;;;;18.05;60.24;98613.13;5028514;28;20037;-80
2023/07/19 01:06:59;;;;;;;5.57;3.45;;;;;;;17.99;61.07;98604.34;5026407;28;20021;-80
2023/07/19 01:09:26;;;;;;;8.82;3.70;;;;;;;17.96;60.96;98608.44;5021311;28;20064;-80
2023/07/19 01:11:51;;;;;;;5.07;3.53;;;;;;;17.93;60.81;98600.94;5012753;28;20033;-80
2023/07/19 01:14:17;;;;;;;5.68;3.53;;;;;;;18.01;60.50;98604.84;5013242;28;20128;-80
2023/07/19 01:16:42;;;;;;;5.20;3.50;;;;;;;17.91;60.87;98589.63;5021350;28;20065;-80
2023/07/19 01:19:09;;;;;;;4.00;2.95;;;;;;;17.83;60.54;98576.06;5005055;28;20034;-80
2023/07/19 01:21:35;;;;;;;4.25;3.28;;;;;;;17.90;60.76;98585.34;5014556;28;20045;-80
2023/07/19 01:24:00;;;;;;;4.22;3.20;;;;;;;17.81;60.94;98591.75;5021197;28;20025;-80
2023/07/19 01:26:26;;;;;;;5.05;3.10;;;;;;;17.81;61.29;98599.84;5023145;28;20040;-80
2023/07/19 01:28:51;;;;;;;4.65;3.15;;;;;;;17.79;61.12;98596.66;5023595;28;20631;-80
2023/07/19 01:31:16;;;;;;;4.28;3.13;;;;;;;17.83;61.04;98598.47;5027348;28;20060;-79
2023/07/19 01:33:42;;;;;;;4.57;3.10;;;;;;;17.79;61.05;98585.84;5019080;28;20728;-80
2023/07/19 01:36:08;;;;;;;5.50;3.40;;;;;;;17.66;61.24;98565.88;5026555;28;20305;-80
2023/07/19 01:38:36;;;;;;;4.13;2.58;;;;;;;17.85;61.27;98579.25;4995002;28;20056;-80
2023/07/19 01:41:01;;;;;;;3.53;3.22;;;;;;;17.83;61.07;98574.16;5011143;28;20053;-80
2023/07/19 01:43:27;;;;;;;5.72;2.72;;;;;;;17.90;61.35;98573.75;5023750;28;20117;-80
2023/07/19 01:45:52;;;;;;;4.93;3.00;;;;;;;17.84;60.80;98573.03;5022590;28;20662;-80
2023/07/19 01:48:18;;;;;;;4.15;3.08;;;;;;;17.67;61.50;98545.88;5027154;28;20037;-80
2023/07/19 01:50:47;;;;;;;4.88;3.03;;;;;;;17.81;61.16;98562.84;5021287;28;20418;-80
2023/07/19 01:53:14;;;;;;;4.70;2.50;;;;;;;17.80;61.33;98558.56;5021937;28;20584;-80
2023/07/19 01:55:40;;;;;;;5.95;3.38;;;;;;;17.61;61.92;98546.28;5010624;28;20507;-80
2023/07/19 01:58:05;;;;;;;4.00;3.22;;;;;;;17.81;61.88;98560.16;5027402;28;20419;-80
2023/07/19 02:00:31;;;;;;;4.95;3.10;;;;;;;17.74;62.06;98557.06;5025074;28;20686;-80
2023/07/19 02:02:56;;;;;;;8.52;3.17;;;;;;;17.69;61.53;98559.09;5026389;28;20057;-80
2023/07/19 02:05:21;;;;;;;4.68;3.08;;;;;;;17.75;61.75;98558.69;5030150;28;20045;-80
2023/07/19 02:07:48;;;;;;;7.13;3.47;;;;;;;17.77;62.21;98563.75;5019485;28;20032;-80
2023/07/19 02:10:13;;;;;;;3.92;3.05;;;;;;;17.68;61.67;98557.47;5020563;28;20112;-80
2023/07/19 02:12:38;;;;;;;4.55;3.33;;;;;;;17.60;62.08;98542.00;5021942;28;20113;-80
2023/07/19 02:15:04;;;;;;;6.15;2.95;;;;;;;17.73;62.13;98550.09;5013993;28;20091;-80
2023/07/19 02:17:30;;;;;;;3.67;2.75;;;;;;;17.74;62.01;98546.25;5024246;28;20124;-79
2023/07/19 02:19:55;;;;;;;4.72;3.38;;;;;;;17.62;62.43;98542.47;5015544;28;20442;-79
2023/07/19 02:22:20;;;;;;;4.63;3.35;;;;;;;17.65;62.60;98548.06;4999383;28;20108;-79
2023/07/19 02:24:46;;;;;;;8.18;3.30;;;;;;;17.66;62.33;98552.38;5035236;28;20052;-79
2023/07/19 02:27:12;;;;;;;3.03;2.70;;;;;;;17.59;62.30;98537.69;5019956;28;20065;-80
2023/07/19 02:29:37;;;;;;;4.45;3.08;;;;;;;17.54;62.66;98535.88;5028172;28;20033;-79
2023/07/19 02:32:04;;;;;;;6.57;3.00;;;;;;;17.72;62.26;98548.47;5028589;28;20040;-79
2023/07/19 02:34:29;;;;;;;5.07;2.92;;;;;;;17.64;62.50;98554.59;5033307;28;20463;-79
2023/07/19 02:36:57;;;;;;;7.15;3.63;;;;;;;17.54;62.55;98535.88;5020552;28;20128;-79
2023/07/19 02:39:25;;;;;;;3.78;2.50;;;;;;;17.61;62.59;98548.97;5028846;28;20052;-80
2023/07/19 02:41:50;;;;;;;4.63;3.28;;;;;;;17.47;62.84;98530.06;5017153;28;20032;-79
2023/07/19 02:44:16;;;;;;;5.13;3.50;;;;;;;17.55;62.96;98542.88;5004737;28;20500;-79
2023/07/19 02:46:41;;;;;;;3.72;2.80;;;;;;;17.42;63.19;98532.88;4990783;28;20140;-80
2023/07/19 02:49:07;;;;;;;8.13;3.40;;;;;;;17.55;62.37;98542.09;5022802;28;20037;-80
2023/07/19 02:51:32;;;;;;;4.10;3.67;;;;;;;17.49;63.34;98538.66;5006898;28;20063;-79
2023/07/19 02:53:57;;;;;;;6.28;3.53;;;;;;;17.41;63.13;98517.00;5024160;28;20083;-79
2023/07/19 02:56:23;;;;;;;6.97;4.22;;;;;;;17.50;62.99;98542.16;5024071;28;20515;-79
2023/07/19 02:58:48;;;;;;;5.43;3.17;;;;;;;17.49;62.95;98549.47;5024930;28;20496;-79
2023/07/19 03:01:16;;;;;;;6.43;4.00;;;;;;;17.48;63.04;98545.16;5024727;28;20030;-79
2023/07/19 03:03:42;;;;;;;5.40;4.07;;;;;;;17.43;63.43;98549.88;5024384;28;20032;-79
2023/07/19 03:06:09;;;;;;;3.20;2.90;;;;;;;17.39;63.52;98548.84;5021938;28;21238;-79
2023/07/19 03:08:36;;;;;;;5.18;3.28;;;;;;;17.38;63.68;98533.75;5027624;28;20037;-79
2023/07/19 03:11:01;;;;;;;5.60;3.20;;;;;;;17.37;63.35;98535.66;5025340;28;20033;-79
2023/07/19 03:13:26;;;;;;;4.57;3.30;;;;;;;17.34;63.73;98549.75;5025110;28;20146;-79
2023/07/19 03:15:52;;;;;;;3.88;3.05;;;;;;;17.29;63.61;98547.16;5023459;28;20041;-80
2023/07/19 03:18:17;;;;;;;7.00;3.67;;;;;;;17.29;63.63;98540.94;5017179;28;20021;-79
2023/07/19 03:20:43;;;;;;;4.45;3.60;;;;;;;17.32;63.98;98546.53;5003784;28;20091;-79
2023/07/19 03:23:08;;;;;;;7.75;3.50;;;;;;;17.31;63.76;98550.34;5038380;28;20116;-79
2023/07/19 03:25:33;;;;;;;4.13;3.40;;;;;;;17.32;63.94;98548.47;5008645;28;20033;-79
2023/07/19 03:27:59;;;;;;;5.90;3.47;;;;;;;17.27;63.81;98543.97;5023790;28;20037;-79
2023/07/19 03:30:24;;;;;;;5.32;3.88;;;;;;;17.30;63.82;98551.44;5005278;28;20034;-79
2023/07/19 03:32:51;;;;;;;6.72;3.75;;;;;;;17.25;64.19;98540.75;5036032;28;20037;-79
2023/07/19 03:35:17;;;;;;;4.57;2.88;;;;;;;17.27;63.83;98543.16;5002105;28;20039;-79
2023/07/19 03:37:44;;;;;;;5.60;3.05;;;;;;;17.28;64.27;98550.16;5018259;28;20533;-80
2023/07/19 03:40:11;;;;;;;4.15;3.33;;;;;;;17.25;63.91;98548.84;5022174;28;20362;-79
2023/07/19 03:42:36;;;;;;;5.75;3.42;;;;;;;17.25;64.25;98548.84;5020016;28;20040;-80
2023/07/19 03:45:02;;;;;;;4.93;3.53;;;;;;;17.10;64.09;98547.22;5023343;28;20033;-79
2023/07/19 03:47:28;;;;;;;5.00;3.17;;;;;;;17.19;64.34;98564.31;5039493;28;20037;-79
2023/07/19 03:49:53;;;;;;;4.45;3.00;;;;;;;17.19;64.02;98560.81;5022739;28;20104;-79
2023/07/19 03:52:18;;;;;;;7.45;3.05;;;;;;;16.82;64.84;98550.19;5024512;28;20038;-79
2023/07/19 03:54:44;;;;;;;4.10;3.45;;;;;;;17.05;64.47;98560.81;5019623;28;20037;-79
2023/07/19 03:57:09;;;;;;;4.00;3.60;;;;;;;16.86;65.28;98567.38;5026154;28;20600;-80
2023/07/19 03:59:34;;;;;;;5.95;3.97;;;;;;;17.00;64.84;98550.13;5024308;28;20033;-79
2023/07/19 04:02:00;;;;;;;6.63;3.22;;;;;;;17.26;64.15;98555.84;5007518;28;20029;-79
2023/07/19 04:04:25;;;;;;;3.97;3.63;;;;;;;17.10;64.66;98559.94;5023335;28;20033;-79
2023/07/19 04:06:50;;;;;;;5.32;3.50;;;;;;;17.07;64.35;98552.41;5020530;28;20049;-79
2023/07/19 04:09:17;;;;;;;5.80;3.97;;;;;;;17.28;64.59;98564.44;5016738;28;20036;-79
2023/07/19 04:11:42;;;;;;;3.85;3.45;;;;;;;17.21;64.16;98561.34;5014683;28;20025;-79
2023/07/19 04:14:08;;;;;;;6.85;3.70;;;;;;;16.74;66.87;98558.94;5023859;28;20048;-79
2023/07/19 04:16:33;;;;;;;7.18;4.00;;;;;;;17.00;65.48;98558.19;5027937;28;20401;-79
2023/07/19 04:18:59;;;;;;;7.75;3.92;;;;;;;17.09;65.30;98558.31;5032675;28;20055;-79
2023/07/19 04:21:24;;;;;;;6.00;3.53;;;;;;;17.10;64.87;98541.81;5026679;28;20094;-79
2023/07/19 04:23:50;;;;;;;6.18;3.85;;;;;;;17.17;64.75;98555.72;5014296;28;20045;-80
2023/07/19 04:26:15;;;;;;;8.23;4.25;;;;;;;17.05;65.43;98554.63;5027250;28;20029;-80
2023/07/19 04:28:40;;;;;;;8.10;3.80;;;;;;;17.22;64.59;98546.75;5005149;28;20124;-79
2023/07/19 04:31:06;;;;;;;4.25;3.60;;;;;;;17.19;64.75;98556.22;5034713;28;20037;-80
2023/07/19 04:33:31;;;;;;;8.00;3.72;;;;;;;17.24;64.96;98561.53;5011819;28;20756;-80
2023/07/19 04:35:57;;;;;;;7.15;3.47;;;;;;;17.10;64.71;98559.94;5024478;28;20029;-79
2023/07/19 04:38:22;;;;;;;6.93;3.58;;;;;;;17.23;64.66;98553.75;5030548;28;20037;-80
2023/07/19 04:40:47;;;;;;;3.85;3.45;;;;;;;17.32;64.99;98559.25;5028341;28;20481;-80
2023/07/19 04:43:13;;;;;;;3.88;3.50;;;;;;;17.30;64.94;98551.44;5007811;28;20030;-80
2023/07/19 04:45:40;;;;;;;8.00;4.20;;;;;;;17.31;64.36;98553.06;5002095;28;20953;-80
2023/07/19 04:48:05;;;;;;;6.43;3.40;;;;;;;17.21;64.70;98550.56;5027491;28;20508;-79
2023/07/19 04:50:30;;;;;;;6.00;3.28;;;;;;;17.28;64.61;98555.56;4997678;28;20040;-80
2023/07/19 04:52:56;;;;;;;6.55;3.15;;;;;;;17.31;64.81;98553.06;5010029;28;20049;-79
2023/07/19 04:55:21;;;;;;;4.95;3.60;;;;;;;17.30;64.40;98545.25;5026381;28;20056;-79
2023/07/19 04:57:47;;;;;;;4.55;3.67;;;;;;;17.39;64.57;98554.22;5028722;28;20033;-80
2023/07/19 05:00:14;;;;;;;5.25;3.50;;;;;;;17.23;64.27;98538.34;5028385;28;20499;-80
2023/07/19 05:02:42;;;;;;;3.72;3.33;;;;;;;17.30;64.47;98540.66;5025444;28;20036;-79
2023/07/19 05:05:09;;;;;;;4.78;3.33;;;;;;;17.13;65.77;98538.53;5027595;28;20480;-80
2023/07/19 05:07:35;;;;;;;5.93;3.42;;;;;;;17.39;65.01;98546.94;5027354;28;20030;-80
2023/07/19 05:10:02;;;;;;;6.70;3.88;;;;;;;17.11;67.55;98543.44;5027666;28;20021;-79
2023/07/19 05:12:28;;;;;;;7.25;3.72;;;;;;;17.46;65.31;98538.44;5029532;28;20037;-80
2023/07/19 05:14:53;;;;;;;5.68;3.08;;;;;;;17.61;64.68;98530.88;5033884;28;20380;-79
2023/07/19 05:17:19;;;;;;;5.22;3.83;;;;;;;17.59;66.04;98540.38;5029125;28;20091;-80
2023/07/19 05:19:44;;;;;;;5.60;3.85;;;;;;;17.68;65.36;98541.28;4993342;28;20034;-80
2023/07/19 05:22:11;;;;;;;4.55;3.28;;;;;;;17.89;64.55;98537.03;5022737;28;20033;-79
2023/07/19 05:24:36;;;;;;;4.60;3.83;;;;;;;17.85;65.03;98533.34;5026862;28;20029;-80
2023/07/19 05:27:02;;;;;;;6.25;3.85;;;;;;;17.99;63.83;98523.31;5012284;28;20335;-80
2023/07/19 05:29:28;;;;;;;6.72;3.95;;;;;;;17.82;66.24;98545.53;5026593;28;20025;-80
2023/07/19 05:31:53;;;;;;;5.28;3.85;;;;;;;17.91;64.26;98532.94;5023833;28;20422;-80
2023/07/19 05:34:18;;;;;;;6.68;3.67;;;;;;;18.04;63.76;98533.22;5008074;28;20505;-80
2023/07/19 05:36:44;;;;;;;8.55;4.22;;;;;;;18.05;63.11;98510.50;5024509;28;20037;-80
2023/07/19 05:39:09;;;;;;;8.85;3.92;;;;;;;18.10;62.84;98526.59;5012396;28;20139;-80
2023/07/19 05:41:35;;;;;;;8.63;3.75;;;;;;;18.10;63.58;98518.50;4994269;28;20038;-79
2023/07/19 05:44:00;;;;;;;4.22;3.47;;;;;;;18.09;63.43;98523.09;5011376;28;20029;-80
2023/07/19 05:46:26;;;;;;;6.20;4.22;;;;;;;18.18;63.57;98532.06;5026834;28;20037;-80
2023/07/19 05:48:51;;;;;;;5.43;4.53;;;;;;;18.18;64.07;98528.56;5027959;28;20473;-80
2023/07/19 05:51:16;;;;;;;6.13;4.10;;;;;;;17.77;66.12;98521.38;5025421;28;20503;-80
2023/07/19 05:53:42;;;;;;;4.18;3.47;;;;;;;18.18;63.97;98525.84;5007425;28;20029;-80
2023/07/19 05:56:07;;;;;;;6.15;4.53;;;;;;;18.23;63.73;98525.75;5021360;28;20465;-80
2023/07/19 05:58:33;;;;;;;6.13;4.25;;;;;;;18.36;63.16;98528.41;5021413;28;21398;-80
2023/07/19 06:00:58;;;;;;;8.93;5.50;;;;;;;18.10;66.98;98515.78;5039412;28;20038;-79
2023/07/19 06:03:23;;;;;;;5.57;4.00;;;;;;;18.01;66.87;98531.91;5032233;28;20037;-80
2023/07/19 06:05:49;;;;;;;4.50;3.92;;;;;;;18.33;63.91;98525.50;5004737;28;20438;-80
2023/07/19 06:08:14;;;;;;;8.63;4.15;;;;;;;18.25;63.96;98502.72;5025788;28;20029;-80
2023/07/19 06:10:40;;;;;;;9.65;4.45;;;;;;;18.26;66.12;98517.03;5006354;28;20026;-80
2023/07/19 06:13:06;;;;;;;8.30;4.90;;;;;;;17.52;68.73;98508.41;5025546;28;20464;-80
2023/07/19 06:15:33;;;;;;;6.10;3.95;;;;;;;18.25;64.50;98523.53;5022223;28;20393;-80
2023/07/19 06:18:02;;;;;;;7.80;4.97;;;;;;;18.26;67.93;98517.03;5030318;28;20551;-80
2023/07/19 06:20:27;;;;;;;6.93;3.80;;;;;;;18.38;64.03;98503.78;5026684;28;20033;-80
2023/07/19 06:22:53;;;;;;;9.00;4.25;;;;;;;18.57;63.84;98499.00;5024672;28;20038;-80
2023/07/19 06:25:18;;;;;;;4.00;3.35;;;;;;;18.85;63.58;98522.06;5006154;28;20033;-80
2023/07/19 06:27:44;;;;;;;6.32;4.50;;;;;;;18.76;63.32;98494.19;5022179;28;20485;-80
2023/07/19 06:30:10;;;;;;;7.28;5.00;;;;;;;18.40;68.76;98496.94;5016342;28;20037;-80
2023/07/19 06:32:36;;;;;;;18.30;5.28;;;;;;;18.40;69.21;98515.06;5019354;28;20022;-79
2023/07/19 06:35:03;;;;;;;5.38;3.70;;;;;;;18.33;66.87;98493.88;5022594;28;20044;-80
2023/07/19 06:37:28;;;;;;;8.25;4.70;;;;;;;18.38;69.33;98511.88;5018468;28;20030;-80
2023/07/19 06:39:54;;;;;;;11.43;4.95;;;;;;;18.51;69.01;98511.84;5021497;28;20040;-79
2023/07/19 06:42:19;;;;;;;9.70;4.97;;;;;;;18.41;70.55;98506.66;5022599;28;20034;-79
2023/07/19 06:44:45;;;;;;;7.05;5.20;;;;;;;18.18;69.09;98502.34;5025176;28;20448;-79
2023/07/19 06:47:10;;;;;;;9.40;4.65;;;;;;;18.06;68.16;98498.59;5023514;28;20040;-79
2023/07/19 06:49:35;;;;;;;9.27;5.22;;;;;;;17.95;70.03;98500.72;5005837;28;20130;-79
2023/07/19 06:52:01;;;;;;;9.20;4.68;;;;;;;18.17;70.62;98505.38;5005923;28;20096;-79
2023/07/19 06:54:26;;;;;;;6.45;4.03;;;;;;;18.34;70.77;98517.09;5027568;28;20432;-79
2023/07/19 06:56:51;;;;;;;9.63;5.35;;;;;;;18.24;70.25;98503.03;5022020;28;20045;-79
2023/07/19 06:59:17;;;;;;;13.00;5.15;;;;;;;18.28;70.76;98512.13;5023290;28;20033;-80
2023/07/19 07:01:43;;;;;;;10.25;4.95;;;;;;;18.25;69.67;98496.53;5002979;28;20500;-80
2023/07/19 07:04:08;;;;;;;9.10;4.75;;;;;;;18.43;69.35;98514.47;5026486;28;20025;-79
2023/07/19 07:06:34;;;;;;;10.85;4.97;;;;;;;18.38;69.49;98495.66;5024389;28;20053;-80
2023/07/19 07:09:00;;;;;;;8.15;4.75;;;;;;;18.45;69.40;98493.38;5020713;28;20505;-80
2023/07/19 07:11:25;;;;;;;5.55;4.20;;;;;;;18.83;69.09;98520.81;5021342;28;20508;-79
2023/07/19 07:13:50;;;;;;;9.77;4.93;;;;;;;18.96;69.76;98507.16;5020820;28;20775;-80
2023/07/19 07:16:16;;;;;;;8.77;5.07;;;;;;;19.03;68.06;98501.31;5024954;28;20112;-80
2023/07/19 07:18:41;;;;;;;6.65;4.18;;;;;;;19.36;65.65;98494.47;5005765;28;20413;-80
2023/07/19 07:21:07;;;;;;;9.80;4.68;;;;;;;19.43;68.72;98503.75;5025168;28;20112;-80
2023/07/19 07:23:35;;;;;;;10.50;4.28;;;;;;;19.70;65.41;98520.84;5020409;28;20070;-80
2023/07/19 07:26:00;;;;;;;7.60;3.80;;;;;;;19.93;63.65;98509.56;5026534;28;20422;-80
2023/07/19 07:28:26;;;;;;;11.13;4.82;;;;;;;19.53;66.32;98509.97;5005731;28;20057;-80
2023/07/19 07:30:52;;;;;;;17.52;4.82;;;;;;;19.74;68.22;98506.38;5016900;28;20025;-80
2023/07/19 07:33:19;;;;;;;7.13;3.97;;;;;;;20.06;63.95;98521.38;5024470;28;20049;-80
2023/07/19 07:35:45;;;;;;;17.73;4.60;;;;;;;19.93;66.57;98516.91;5037078;28;20053;-80
2023/07/19 07:38:10;;;;;;;11.25;4.55;;;;;;;20.03;64.66;98513.88;5019344;28;20057;-80
2023/07/19 07:40:35;;;;;;;11.48;4.57;;;;;;;19.79;66.80;98519.72;5021425;28;20034;-80
2023/07/19 07:43:01;;;;;;;11.20;3.95;;;;;;;20.15;63.79;98520.28;4986754;28;20393;-80
2023/07/19 07:45:26;;;;;;;8.07;4.38;;;;;;;20.30;63.56;98510.06;4988215;28;20033;-80
2023/07/19 07:47:51;;;;;;;5.93;3.75;;;;;;;20.62;62.86;98510.34;5015828;28;20045;-80
2023/07/19 07:50:19;;;;;;;9.82;4.22;;;;;;;20.75;60.93;98520.22;5015557;28;20577;-80
2023/07/19 07:52:44;;;;;;;5.38;3.55;;;;;;;20.75;60.55;98517.50;5026021;28;20030;-80
2023/07/19 07:55:10;;;;;;;6.57;3.20;;;;;;;20.75;59.38;98514.03;5021836;28;20056;-80
2023/07/19 07:57:37;;;;;;;7.00;4.95;;;;;;;20.89;59.09;98514.63;5019544;28;20072;-80
2023/07/19 08:00:06;;;;;;;6.07;3.35;;;;;;;21.01;57.49;98500.38;5013845;28;20041;-80
2023/07/19 08:02:32;;;;;;;11.25;4.30;;;;;;;21.01;57.37;98493.03;5022405;28;20553;-80
2023/07/19 08:04:57;;;;;;;7.70;3.92;;;;;;;21.22;57.65;98517.56;5008278;28;20112;-80
2023/07/19 08:07:25;;;;;;;6.18;3.42;;;;;;;21.22;57.07;98520.28;5023058;28;20056;-79
2023/07/19 08:09:52;;;;;;;5.00;3.90;;;;;;;21.11;57.46;98513.63;5020739;28;20478;-79
2023/07/19 08:12:18;;;;;;;4.85;3.40;;;;;;;21.29;56.57;98507.00;5022328;28;20026;-79
2023/07/19 08:14:44;;;;;;;8.65;3.40;;;;;;;21.18;55.88;98497.63;5024099;28;20032;-79
2023/07/19 08:17:09;;;;;;;6.97;3.55;;;;;;;21.28;55.97;98495.34;5028931;28;20024;-79
2023/07/19 08:19:35;;;;;;;5.57;3.30;;;;;;;21.31;55.61;98499.31;5027227;28;20504;-79
2023/07/19 08:22:04;;;;;;;6.00;3.47;;;;;;;21.43;55.24;98489.34;5008562;28;20045;-79
2023/07/19 08:24:30;;;;;;;7.05;3.55;;;;;;;21.51;54.78;98493.16;5023190;28;20396;-79
2023/07/19 08:26:55;;;;;;;8.38;3.83;;;;;;;21.63;55.33;98512.25;5009437;28;20025;-79
2023/07/19 08:29:21;;;;;;;5.50;3.17;;;;;;;21.78;54.85;98508.16;5026639;28;20041;-79
2023/07/19 08:31:46;;;;;;;7.50;3.63;;;;;;;21.70;55.64;98509.81;5025414;28;20030;-80
2023/07/19 08:34:11;;;;;;;7.03;3.20;;;;;;;21.77;54.98;98507.38;4999145;28;20776;-79
2023/07/19 08:36:37;;;;;;;7.25;3.80;;;;;;;21.74;54.83;98518.09;5019158;28;20080;-80
2023/07/19 08:39:02;;;;;;;4.30;3.33;;;;;;;21.75;54.73;98514.28;5021010;28;20068;-79
2023/07/19 08:41:31;;;;;;;8.73;3.85;;;;;;;21.57;55.31;98495.38;5020583;28;20038;-80
2023/07/19 08:43:57;;;;;;;6.13;3.30;;;;;;;21.49;54.82;98498.91;5001919;28;20040;-80
2023/07/19 08:46:22;;;;;;;9.23;4.10;;;;;;;21.48;54.86;98504.66;5019820;28;20034;-80
2023/07/19 08:48:48;;;;;;;6.38;3.47;;;;;;;21.43;57.41;98500.22;5018138;28;20374;-80
2023/07/19 08:51:15;;;;;;;6.75;3.58;;;;;;;21.44;55.17;98504.53;5027422;28;20033;-80
2023/07/19 08:53:41;;;;;;;5.10;3.25;;;;;;;21.58;55.17;98515.16;5021866;28;20056;-80
2023/07/19 08:56:06;;;;;;;5.80;3.70;;;;;;;21.42;55.35;98501.34;5004672;28;20080;-80
2023/07/19 08:58:37;;;;;;;5.28;3.58;;;;;;;21.56;55.39;98522.81;5020856;28;20088;-80
2023/07/19 09:01:02;;;;;;;4.53;4.07;;;;;;;21.46;54.88;98505.00;5013074;28;20033;-80
2023/07/19 09:03:28;;;;;;;6.50;3.33;;;;;;;21.57;54.22;98530.66;5020421;28;20043;-80
2023/07/19 09:05:54;;;;;;;6.40;3.67;;;;;;;21.38;54.45;98534.91;5021942;28;20073;-80
2023/07/19 09:08:19;;;;;;;6.60;3.30;;;;;;;21.34;55.04;98547.56;5021063;28;20029;-79
2023/07/19 09:10:46;;;;;;;7.50;3.42;;;;;;;21.10;55.01;98548.09;5025057;28;20121;-79
2023/07/19 09:13:20;;;;;;;8.98;4.07;;;;;;;20.75;56.33;98536.50;5008195;28;20969;-79
2023/07/19 09:15:47;;;;;;;9.50;3.45;;;;;;;20.92;55.80;98546.53;5023666;28;20548;-79
2023/07/19 09:18:13;;;;;;;5.80;3.40;;;;;;;20.71;56.45;98518.47;5025624;28;20029;-79
2023/07/19 09:20:39;;;;;;;7.35;3.70;;;;;;;20.63;58.00;98530.16;5028369;28;20024;-80
2023/07/19 09:23:06;;;;;;;6.53;3.40;;;;;;;20.47;60.83;98543.41;5014336;28;20029;-80
2023/07/19 09:25:33;;;;;;;6.30;3.25;;;;;;;20.34;60.05;98536.22;5027805;28;20501;-79
2023/07/19 09:28:04;;;;;;;5.35;3.45;;;;;;;20.27;61.37;98540.56;5031143;28;20550;-79
2023/07/19 09:30:30;;;;;;;4.55;3.35;;;;;;;20.24;61.70;98541.19;5031302;28;20052;-79
2023/07/19 09:32:59;;;;;;;8.68;4.10;;;;;;;20.16;61.56;98529.97;5028762;28;20029;-79
2023/07/19 09:35:27;;;;;;;9.52;4.63;;;;;;;20.06;62.15;98545.75;5028003;28;20485;-80
2023/07/19 09:37:53;;;;;;;5.95;3.45;;;;;;;19.97;62.25;98550.38;5031624;28;20053;-79
2023/07/19 09:40:19;;;;;;;7.82;4.05;;;;;;;19.87;63.39;98547.97;5007790;28;20536;-80
2023/07/19 09:42:45;;;;;;;5.35;3.42;;;;;;;19.80;63.31;98553.84;5012387;28;20087;-79
2023/07/19 09:45:11;;;;;;;6.78;3.78;;;;;;;19.93;63.06;98569.16;5020930;28;20049;-79
2023/07/19 09:47:39;;;;;;;9.38;5.18;;;;;;;19.66;64.20;98569.41;5025199;28;20076;-79
2023/07/19 09:50:06;;;;;;;6.82;3.72;;;;;;;19.59;64.59;98552.84;5018618;28;20064;-80
2023/07/19 09:52:40;;;;;;;9.32;4.45;;;;;;;19.74;63.97;98570.56;5012813;28;20025;-79
2023/07/19 09:55:06;;;;;;;6.78;4.88;;;;;;;19.62;63.96;98557.63;5031599;28;20029;-79
2023/07/19 09:57:35;;;;;;;5.90;3.92;;;;;;;19.74;63.73;98559.72;5019249;28;20484;-79
2023/07/19 10:00:03;;;;;;;9.43;4.43;;;;;;;19.40;64.52;98544.97;5046838;28;20029;-79
2023/07/19 10:02:29;;;;;;;7.32;3.88;;;;;;;19.65;64.87;98557.00;5018486;28;20033;-79
2023/07/19 10:04:54;;;;;;;4.78;3.30;;;;;;;19.86;63.51;98566.13;5041648;28;20031;-79
2023/07/19 10:07:21;;;;;;;6.22;4.00;;;;;;;19.71;64.33;98546.81;5011942;28;20116;-79
2023/07/19 10:10:01;;;;;;;5.30;3.30;;;;;;;19.93;62.80;98552.91;5020307;28;20021;-80
2023/07/19 10:12:27;;;;;;;7.75;3.40;;;;;;;19.68;63.74;98555.56;5028566;28;20923;-79
2023/07/19 10:14:54;;;;;;;5.57;3.58;;;;;;;19.72;63.69;98564.66;4993716;28;20187;-79
2023/07/19 10:17:20;;;;;;;5.63;3.25;;;;;;;19.79;63.22;98570.41;5015049;28;20037;-79
2023/07/19 10:20:14;;;;;;;6.43;2.80;;;;;;;19.68;63.48;98575.31;5025128;28;20632;-79
2023/07/19 10:22:55;;;;;;;7.18;3.45;;;;;;;19.58;63.16;98567.47;5025103;28;20592;-79
2023/07/19 10:25:31;;;;;;;5.00;3.05;;;;;;;19.62;63.04;98590.09;5019707;28;20410;-80
2023/07/19 10:28:10;;;;;;;6.18;3.15;;;;;;;19.53;63.79;98597.41;5025741;28;20045;-80
2023/07/19 10:30:54;;;;;;;7.32;3.42;;;;;;;19.12;66.91;98602.25;5034865;28;20037;-81
2023/07/19 10:33:21;;;;;;;5.43;3.33;;;;;;;19.17;67.66;98615.66;5006520;28;20032;-80
2023/07/19 10:35:55;;;;;;;3.58;2.80;;;;;;;19.13;68.49;98609.28;5029542;28;20484;-80
2023/07/19 10:38:20;;;;;;;5.22;3.50;;;;;;;18.89;70.53;98603.41;5029444;28;20029;-80
2023/07/19 10:40:49;;;;;;;5.10;2.80;;;;;;;18.87;70.16;98583.97;5025223;28;21556;-80
2023/07/19 10:43:15;;;;;;;4.88;3.90;;;;;;;18.68;71.86;98586.84;5029776;28;20116;-80
2023/07/19 10:45:41;;;;;;;8.20;3.00;;;;;;;18.76;71.82;98569.91;5037528;28;20115;-80
2023/07/19 10:48:06;;;;;;;5.97;3.17;;;;;;;18.88;71.68;98580.16;5028659;28;20080;-79
2023/07/19 10:50:32;;;;;;;4.95;3.05;;;;;;;18.85;72.28;98565.34;5028102;28;20085;-80
2023/07/19 10:52:57;;;;;;;6.63;3.30;;;;;;;18.81;73.32;98567.06;5018557;28;20576;-80
2023/07/19 10:55:23;;;;;;;5.47;3.35;;;;;;;18.66;72.64;98524.19;5027304;28;20087;-80
2023/07/19 10:57:49;;;;;;;6.97;3.47;;;;;;;19.02;72.22;98554.63;5028740;28;20138;-80
2023/07/19 11:00:14;;;;;;;7.15;3.38;;;;;;;18.97;71.61;98526.91;5022942;28;20029;-80
2023/07/19 11:02:40;;;;;;;6.13;3.47;;;;;;;19.29;71.54;98557.16;5034439;28;20136;-81
2023/07/19 11:05:07;;;;;;;6.60;2.85;;;;;;;19.32;71.82;98556.53;5031853;28;20025;-80
2023/07/19 11:07:33;;;;;;;4.25;3.53;;;;;;;19.28;72.56;98552.84;5027945;28;20049;-80
2023/07/19 11:10:00;;;;;;;4.60;3.33;;;;;;;19.36;71.15;98557.53;5025080;28;20017;-80
2023/07/19 11:12:26;;;;;;;6.07;3.38;;;;;;;19.43;71.40;98563.28;5022507;28;20099;-80
2023/07/19 11:14:57;;;;;;;5.68;2.63;;;;;;;19.25;72.26;98548.06;5026786;28;20037;-81
2023/07/19 11:17:26;;;;;;;4.57;2.92;;;;;;;19.04;73.36;98552.41;5023953;28;20032;-81
2023/07/19 11:20:02;;;;;;;5.07;3.00;;;;;;;19.16;73.40;98576.16;5016151;28;20041;-81
2023/07/19 11:22:27;;;;;;;4.15;3.35;;;;;;;19.13;72.87;98558.66;5013069;28;20701;-80
2023/07/19 11:24:55;;;;;;;4.07;3.30;;;;;;;19.16;72.82;98543.69;5000073;28;20091;-80
2023/07/19 11:27:36;;;;;;;3.92;3.47;;;;;;;19.14;73.03;98535.09;5006447;28;20061;-80
2023/07/19 11:30:02;;;;;;;4.55;3.67;;;;;;;19.14;74.14;98554.84;5013183;28;20541;-80